sensor_id;sensor_type;location;lat;lon;timestamp;P1;durP1;ratioP1;P2;durP2;ratioP2
36259;SDS011;22296;50.824;5.644;2023-05-21T00:01:03;2.95;;;2.60;;
36259;SDS011;22296;50.824;5.644;2023-05-21T00:03:33;2.63;;;2.42;;
36259;SDS011;22296;50.824;5.644;2023-05-21T00:06:01;3.17;;;2.80;;
36259;SDS011;22296;50.824;5.644;2023-05-21T00:08:29;3.47;;;2.97;;
36259;SDS011;22296;50.824;5.644;2023-05-21T00:10:56;2.80;;;2.60;;
36259;SDS011;22296;50.824;5.644;2023-05-21T00:13:23;3.10;;;2.80;;
36259;SDS011;22296;50.824;5.644;2023-05-21T00:15:50;3.33;;;3.03;;
36259;SDS011;22296;50.824;5.644;2023-05-21T00:18:17;3.38;;;2.90;;
36259;SDS011;22296;50.824;5.644;2023-05-21T00:20:44;3.40;;;2.70;;
36259;SDS011;22296;50.824;5.644;2023-05-21T00:23:11;2.90;;;2.70;;
36259;SDS011;22296;50.824;5.644;2023-05-21T00:25:38;3.22;;;2.95;;
36259;SDS011;22296;50.824;5.644;2023-05-21T00:28:05;4.43;;;3.20;;
36259;SDS011;22296;50.824;5.644;2023-05-21T00:30:32;2.92;;;2.50;;
36259;SDS011;22296;50.824;5.644;2023-05-21T00:32:59;2.75;;;2.53;;
36259;SDS011;22296;50.824;5.644;2023-05-21T00:37:54;3.65;;;3.03;;
36259;SDS011;22296;50.824;5.644;2023-05-21T00:40:21;3.20;;;2.90;;
36259;SDS011;22296;50.824;5.644;2023-05-21T00:42:48;3.20;;;2.85;;
36259;SDS011;22296;50.824;5.644;2023-05-21T00:45:15;3.30;;;3.00;;
36259;SDS011;22296;50.824;5.644;2023-05-21T00:47:42;2.60;;;2.40;;
36259;SDS011;22296;50.824;5.644;2023-05-21T00:50:11;3.40;;;3.07;;
36259;SDS011;22296;50.824;5.644;2023-05-21T00:52:41;3.17;;;2.90;;
36259;SDS011;22296;50.824;5.644;2023-05-21T00:55:10;2.83;;;2.40;;
36259;SDS011;22296;50.824;5.644;2023-05-21T00:57:37;3.35;;;3.05;;
36259;SDS011;22296;50.824;5.644;2023-05-21T01:00:05;3.28;;;2.97;;
36259;SDS011;22296;50.824;5.644;2023-05-21T01:02:34;3.85;;;3.15;;
36259;SDS011;22296;50.824;5.644;2023-05-21T01:05:03;4.05;;;2.60;;
36259;SDS011;22296;50.824;5.644;2023-05-21T01:07:32;2.93;;;2.60;;
36259;SDS011;22296;50.824;5.644;2023-05-21T01:10:02;3.60;;;3.30;;
36259;SDS011;22296;50.824;5.644;2023-05-21T01:12:30;4.82;;;3.05;;
36259;SDS011;22296;50.824;5.644;2023-05-21T01:14:59;3.20;;;2.90;;
36259;SDS011;22296;50.824;5.644;2023-05-21T01:17:29;3.30;;;3.00;;
36259;SDS011;22296;50.824;5.644;2023-05-21T01:19:57;3.35;;;3.03;;
36259;SDS011;22296;50.824;5.644;2023-05-21T01:22:24;3.35;;;3.00;;
36259;SDS011;22296;50.824;5.644;2023-05-21T01:24:54;3.20;;;2.72;;
36259;SDS011;22296;50.824;5.644;2023-05-21T01:27:21;3.58;;;3.28;;
36259;SDS011;22296;50.824;5.644;2023-05-21T01:29:48;4.07;;;2.97;;
36259;SDS011;22296;50.824;5.644;2023-05-21T01:35:07;3.20;;;2.90;;
36259;SDS011;22296;50.824;5.644;2023-05-21T01:40:32;4.43;;;3.10;;
36259;SDS011;22296;50.824;5.644;2023-05-21T01:43:04;4.15;;;3.05;;
36259;SDS011;22296;50.824;5.644;2023-05-21T01:45:32;3.78;;;3.40;;
36259;SDS011;22296;50.824;5.644;2023-05-21T01:48:04;4.13;;;2.95;;
36259;SDS011;22296;50.824;5.644;2023-05-21T01:50:34;3.30;;;2.97;;
36259;SDS011;22296;50.824;5.644;2023-05-21T01:53:02;5.43;;;3.00;;
36259;SDS011;22296;50.824;5.644;2023-05-21T01:55:31;3.40;;;3.10;;
36259;SDS011;22296;50.824;5.644;2023-05-21T01:57:58;3.33;;;3.03;;
36259;SDS011;22296;50.824;5.644;2023-05-21T02:00:28;3.50;;;2.78;;
36259;SDS011;22296;50.824;5.644;2023-05-21T02:02:55;3.28;;;2.95;;
36259;SDS011;22296;50.824;5.644;2023-05-21T02:05:22;3.40;;;3.10;;
36259;SDS011;22296;50.824;5.644;2023-05-21T02:07:49;3.50;;;3.20;;
36259;SDS011;22296;50.824;5.644;2023-05-21T02:10:17;3.20;;;2.90;;
36259;SDS011;22296;50.824;5.644;2023-05-21T02:12:44;3.50;;;2.75;;
36259;SDS011;22296;50.824;5.644;2023-05-21T02:15:11;3.38;;;3.08;;
36259;SDS011;22296;50.824;5.644;2023-05-21T02:17:39;3.55;;;3.10;;
36259;SDS011;22296;50.824;5.644;2023-05-21T02:20:10;3.65;;;3.15;;
36259;SDS011;22296;50.824;5.644;2023-05-21T02:25:08;4.78;;;3.70;;
36259;SDS011;22296;50.824;5.644;2023-05-21T02:27:36;5.22;;;3.28;;
36259;SDS011;22296;50.824;5.644;2023-05-21T02:30:05;4.78;;;3.03;;
36259;SDS011;22296;50.824;5.644;2023-05-21T02:32:34;5.00;;;3.20;;
36259;SDS011;22296;50.824;5.644;2023-05-21T02:35:01;4.07;;;3.20;;
36259;SDS011;22296;50.824;5.644;2023-05-21T02:37:30;3.33;;;3.03;;
36259;SDS011;22296;50.824;5.644;2023-05-21T02:40:01;3.65;;;3.22;;
36259;SDS011;22296;50.824;5.644;2023-05-21T02:44:56;4.15;;;3.20;;
36259;SDS011;22296;50.824;5.644;2023-05-21T02:47:23;5.13;;;3.40;;
36259;SDS011;22296;50.824;5.644;2023-05-21T02:49:52;3.50;;;3.13;;
36259;SDS011;22296;50.824;5.644;2023-05-21T02:52:19;4.05;;;3.50;;
36259;SDS011;22296;50.824;5.644;2023-05-21T02:54:50;4.22;;;3.33;;
36259;SDS011;22296;50.824;5.644;2023-05-21T02:57:17;3.95;;;3.38;;
36259;SDS011;22296;50.824;5.644;2023-05-21T02:59:44;3.58;;;3.28;;
36259;SDS011;22296;50.824;5.644;2023-05-21T03:02:11;3.75;;;3.33;;
36259;SDS011;22296;50.824;5.644;2023-05-21T03:04:38;3.38;;;2.90;;
36259;SDS011;22296;50.824;5.644;2023-05-21T03:07:11;4.45;;;3.30;;
36259;SDS011;22296;50.824;5.644;2023-05-21T03:09:40;4.93;;;3.33;;
36259;SDS011;22296;50.824;5.644;2023-05-21T03:12:08;4.55;;;3.50;;
36259;SDS011;22296;50.824;5.644;2023-05-21T03:14:35;4.13;;;3.17;;
36259;SDS011;22296;50.824;5.644;2023-05-21T03:17:05;3.80;;;3.35;;
36259;SDS011;22296;50.824;5.644;2023-05-21T03:19:33;4.93;;;3.80;;
36259;SDS011;22296;50.824;5.644;2023-05-21T03:22:03;3.33;;;3.03;;
36259;SDS011;22296;50.824;5.644;2023-05-21T03:24:33;3.45;;;3.15;;
36259;SDS011;22296;50.824;5.644;2023-05-21T03:27:01;3.43;;;3.10;;
36259;SDS011;22296;50.824;5.644;2023-05-21T03:29:29;3.78;;;3.17;;
36259;SDS011;22296;50.824;5.644;2023-05-21T03:31:56;3.42;;;3.13;;
36259;SDS011;22296;50.824;5.644;2023-05-21T03:34:23;5.28;;;3.13;;
36259;SDS011;22296;50.824;5.644;2023-05-21T03:36:50;4.10;;;3.70;;
36259;SDS011;22296;50.824;5.644;2023-05-21T03:39:18;3.88;;;3.40;;
36259;SDS011;22296;50.824;5.644;2023-05-21T03:41:45;3.42;;;3.08;;
36259;SDS011;22296;50.824;5.644;2023-05-21T03:44:20;4.05;;;3.35;;
36259;SDS011;22296;50.824;5.644;2023-05-21T03:46:52;3.45;;;3.10;;
36259;SDS011;22296;50.824;5.644;2023-05-21T03:49:22;3.40;;;3.10;;
36259;SDS011;22296;50.824;5.644;2023-05-21T03:51:52;3.67;;;3.20;;
36259;SDS011;22296;50.824;5.644;2023-05-21T03:54:20;3.50;;;3.05;;
36259;SDS011;22296;50.824;5.644;2023-05-21T03:59:17;4.40;;;3.30;;
36259;SDS011;22296;50.824;5.644;2023-05-21T04:01:46;3.53;;;3.08;;
36259;SDS011;22296;50.824;5.644;2023-05-21T04:04:15;3.80;;;3.38;;
36259;SDS011;22296;50.824;5.644;2023-05-21T04:06:42;4.00;;;3.60;;
36259;SDS011;22296;50.824;5.644;2023-05-21T04:09:10;4.07;;;3.20;;
36259;SDS011;22296;50.824;5.644;2023-05-21T04:11:37;4.00;;;3.60;;
36259;SDS011;22296;50.824;5.644;2023-05-21T04:14:04;4.05;;;3.58;;
36259;SDS011;22296;50.824;5.644;2023-05-21T04:16:31;4.97;;;3.35;;
36259;SDS011;22296;50.824;5.644;2023-05-21T04:19:00;3.30;;;3.00;;
36259;SDS011;22296;50.824;5.644;2023-05-21T04:21:28;3.60;;;3.30;;
36259;SDS011;22296;50.824;5.644;2023-05-21T04:23:57;3.28;;;2.97;;
36259;SDS011;22296;50.824;5.644;2023-05-21T04:26:45;4.20;;;3.40;;
36259;SDS011;22296;50.824;5.644;2023-05-21T04:29:14;3.38;;;3.05;;
36259;SDS011;22296;50.824;5.644;2023-05-21T04:31:48;3.38;;;3.08;;
36259;SDS011;22296;50.824;5.644;2023-05-21T04:34:15;3.78;;;3.08;;
36259;SDS011;22296;50.824;5.644;2023-05-21T04:36:43;4.05;;;3.60;;
36259;SDS011;22296;50.824;5.644;2023-05-21T04:39:11;2.88;;;2.67;;
36259;SDS011;22296;50.824;5.644;2023-05-21T04:41:39;3.80;;;3.40;;
36259;SDS011;22296;50.824;5.644;2023-05-21T04:44:06;3.55;;;3.00;;
36259;SDS011;22296;50.824;5.644;2023-05-21T04:46:34;3.50;;;3.00;;
36259;SDS011;22296;50.824;5.644;2023-05-21T04:49:01;3.50;;;3.20;;
36259;SDS011;22296;50.824;5.644;2023-05-21T04:51:28;3.50;;;3.20;;
36259;SDS011;22296;50.824;5.644;2023-05-21T04:53:56;3.38;;;3.08;;
36259;SDS011;22296;50.824;5.644;2023-05-21T04:56:24;3.75;;;3.35;;
36259;SDS011;22296;50.824;5.644;2023-05-21T04:58:52;3.80;;;3.10;;
36259;SDS011;22296;50.824;5.644;2023-05-21T05:01:20;3.80;;;3.40;;
36259;SDS011;22296;50.824;5.644;2023-05-21T05:03:55;4.20;;;3.35;;
36259;SDS011;22296;50.824;5.644;2023-05-21T05:06:22;3.15;;;2.88;;
36259;SDS011;22296;50.824;5.644;2023-05-21T05:08:51;3.47;;;3.17;;
36259;SDS011;22296;50.824;5.644;2023-05-21T05:11:19;3.65;;;3.03;;
36259;SDS011;22296;50.824;5.644;2023-05-21T05:13:46;3.53;;;3.17;;
36259;SDS011;22296;50.824;5.644;2023-05-21T05:16:13;3.10;;;2.80;;
36259;SDS011;22296;50.824;5.644;2023-05-21T05:18:42;3.50;;;3.20;;
36259;SDS011;22296;50.824;5.644;2023-05-21T05:21:10;4.00;;;3.60;;
36259;SDS011;22296;50.824;5.644;2023-05-21T05:23:37;3.70;;;3.40;;
36259;SDS011;22296;50.824;5.644;2023-05-21T05:26:06;3.80;;;3.47;;
36259;SDS011;22296;50.824;5.644;2023-05-21T05:28:33;3.22;;;2.92;;
36259;SDS011;22296;50.824;5.644;2023-05-21T05:31:00;3.30;;;3.00;;
36259;SDS011;22296;50.824;5.644;2023-05-21T05:33:27;3.10;;;2.80;;
36259;SDS011;22296;50.824;5.644;2023-05-21T05:35:54;5.13;;;3.53;;
36259;SDS011;22296;50.824;5.644;2023-05-21T05:38:21;3.33;;;3.03;;
36259;SDS011;22296;50.824;5.644;2023-05-21T05:40:48;3.20;;;2.80;;
36259;SDS011;22296;50.824;5.644;2023-05-21T05:43:14;3.33;;;3.03;;
36259;SDS011;22296;50.824;5.644;2023-05-21T05:45:42;3.97;;;3.00;;
36259;SDS011;22296;50.824;5.644;2023-05-21T05:48:12;3.67;;;3.05;;
36259;SDS011;22296;50.824;5.644;2023-05-21T05:50:40;2.93;;;2.63;;
36259;SDS011;22296;50.824;5.644;2023-05-21T05:53:07;3.33;;;2.90;;
36259;SDS011;22296;50.824;5.644;2023-05-21T05:55:34;3.33;;;3.03;;
36259;SDS011;22296;50.824;5.644;2023-05-21T05:58:01;3.00;;;2.75;;
36259;SDS011;22296;50.824;5.644;2023-05-21T06:00:28;3.28;;;2.97;;
36259;SDS011;22296;50.824;5.644;2023-05-21T06:02:57;3.28;;;2.88;;
36259;SDS011;22296;50.824;5.644;2023-05-21T06:05:25;3.35;;;3.05;;
36259;SDS011;22296;50.824;5.644;2023-05-21T06:07:52;3.03;;;2.72;;
36259;SDS011;22296;50.824;5.644;2023-05-21T06:10:19;3.53;;;3.20;;
36259;SDS011;22296;50.824;5.644;2023-05-21T06:12:46;3.33;;;2.95;;
36259;SDS011;22296;50.824;5.644;2023-05-21T06:15:13;3.20;;;2.90;;
36259;SDS011;22296;50.824;5.644;2023-05-21T06:17:42;3.95;;;3.15;;
36259;SDS011;22296;50.824;5.644;2023-05-21T06:20:11;3.47;;;3.10;;
36259;SDS011;22296;50.824;5.644;2023-05-21T06:22:38;3.33;;;3.03;;
36259;SDS011;22296;50.824;5.644;2023-05-21T06:25:06;3.10;;;2.80;;
36259;SDS011;22296;50.824;5.644;2023-05-21T06:27:34;2.80;;;2.60;;
36259;SDS011;22296;50.824;5.644;2023-05-21T06:30:02;3.53;;;2.83;;
36259;SDS011;22296;50.824;5.644;2023-05-21T06:32:30;3.10;;;2.78;;
36259;SDS011;22296;50.824;5.644;2023-05-21T06:34:57;3.35;;;2.75;;
36259;SDS011;22296;50.824;5.644;2023-05-21T06:37:24;3.35;;;3.05;;
36259;SDS011;22296;50.824;5.644;2023-05-21T06:39:52;3.15;;;2.85;;
36259;SDS011;22296;50.824;5.644;2023-05-21T06:42:19;3.50;;;3.20;;
36259;SDS011;22296;50.824;5.644;2023-05-21T06:45:12;3.25;;;2.95;;
36259;SDS011;22296;50.824;5.644;2023-05-21T06:47:42;3.78;;;2.95;;
36259;SDS011;22296;50.824;5.644;2023-05-21T06:50:09;3.28;;;2.97;;
36259;SDS011;22296;50.824;5.644;2023-05-21T06:52:36;3.67;;;3.38;;
36259;SDS011;22296;50.824;5.644;2023-05-21T06:55:03;3.25;;;2.80;;
36259;SDS011;22296;50.824;5.644;2023-05-21T06:57:48;3.45;;;3.15;;
36259;SDS011;22296;50.824;5.644;2023-05-21T07:00:14;3.25;;;2.95;;
36259;SDS011;22296;50.824;5.644;2023-05-21T07:02:41;3.17;;;2.88;;
36259;SDS011;22296;50.824;5.644;2023-05-21T07:05:08;3.30;;;3.00;;
36259;SDS011;22296;50.824;5.644;2023-05-21T07:07:35;3.28;;;2.97;;
36259;SDS011;22296;50.824;5.644;2023-05-21T07:10:02;3.67;;;3.17;;
36259;SDS011;22296;50.824;5.644;2023-05-21T07:12:29;3.13;;;2.72;;
36259;SDS011;22296;50.824;5.644;2023-05-21T07:14:56;3.35;;;3.05;;
36259;SDS011;22296;50.824;5.644;2023-05-21T07:17:25;3.05;;;2.70;;
36259;SDS011;22296;50.824;5.644;2023-05-21T07:19:52;3.05;;;2.85;;
36259;SDS011;22296;50.824;5.644;2023-05-21T07:22:19;3.55;;;2.97;;
36259;SDS011;22296;50.824;5.644;2023-05-21T07:24:46;3.40;;;3.10;;
36259;SDS011;22296;50.824;5.644;2023-05-21T07:27:13;3.25;;;2.92;;
36259;SDS011;22296;50.824;5.644;2023-05-21T07:29:53;3.65;;;2.80;;
36259;SDS011;22296;50.824;5.644;2023-05-21T07:32:20;3.85;;;2.97;;
36259;SDS011;22296;50.824;5.644;2023-05-21T07:34:47;3.20;;;2.90;;
36259;SDS011;22296;50.824;5.644;2023-05-21T07:37:14;3.00;;;2.70;;
36259;SDS011;22296;50.824;5.644;2023-05-21T07:39:41;3.40;;;2.95;;
36259;SDS011;22296;50.824;5.644;2023-05-21T07:42:10;3.15;;;2.85;;
36259;SDS011;22296;50.824;5.644;2023-05-21T07:44:37;3.30;;;2.95;;
36259;SDS011;22296;50.824;5.644;2023-05-21T07:47:05;4.03;;;3.15;;
36259;SDS011;22296;50.824;5.644;2023-05-21T07:49:33;3.20;;;2.90;;
36259;SDS011;22296;50.824;5.644;2023-05-21T07:52:00;3.28;;;2.97;;
36259;SDS011;22296;50.824;5.644;2023-05-21T07:54:28;4.20;;;3.00;;
36259;SDS011;22296;50.824;5.644;2023-05-21T07:56:56;3.65;;;2.95;;
36259;SDS011;22296;50.824;5.644;2023-05-21T07:59:41;3.10;;;2.80;;
36259;SDS011;22296;50.824;5.644;2023-05-21T08:02:09;3.22;;;2.97;;
36259;SDS011;22296;50.824;5.644;2023-05-21T08:04:36;3.00;;;2.80;;
36259;SDS011;22296;50.824;5.644;2023-05-21T08:07:08;3.13;;;2.78;;
36259;SDS011;22296;50.824;5.644;2023-05-21T08:09:36;4.20;;;3.17;;
36259;SDS011;22296;50.824;5.644;2023-05-21T08:12:03;3.00;;;2.70;;
36259;SDS011;22296;50.824;5.644;2023-05-21T08:14:30;3.38;;;3.08;;
36259;SDS011;22296;50.824;5.644;2023-05-21T08:16:58;2.75;;;2.55;;
36259;SDS011;22296;50.824;5.644;2023-05-21T08:19:25;3.20;;;2.90;;
36259;SDS011;22296;50.824;5.644;2023-05-21T08:21:52;3.22;;;2.92;;
36259;SDS011;22296;50.824;5.644;2023-05-21T08:24:20;3.23;;;2.93;;
36259;SDS011;22296;50.824;5.644;2023-05-21T08:26:47;3.83;;;2.95;;
36259;SDS011;22296;50.824;5.644;2023-05-21T08:29:16;2.95;;;2.72;;
36259;SDS011;22296;50.824;5.644;2023-05-21T08:31:44;3.45;;;3.15;;
36259;SDS011;22296;50.824;5.644;2023-05-21T08:34:11;3.42;;;3.13;;
36259;SDS011;22296;50.824;5.644;2023-05-21T08:36:44;3.38;;;3.08;;
36259;SDS011;22296;50.824;5.644;2023-05-21T08:39:33;3.72;;;3.05;;
36259;SDS011;22296;50.824;5.644;2023-05-21T08:42:03;3.00;;;2.70;;
36259;SDS011;22296;50.824;5.644;2023-05-21T08:44:38;3.28;;;2.97;;
36259;SDS011;22296;50.824;5.644;2023-05-21T08:47:12;3.50;;;2.97;;
36259;SDS011;22296;50.824;5.644;2023-05-21T08:49:42;3.15;;;2.83;;
36259;SDS011;22296;50.824;5.644;2023-05-21T08:52:10;3.75;;;3.10;;
36259;SDS011;22296;50.824;5.644;2023-05-21T08:54:38;3.20;;;2.90;;
36259;SDS011;22296;50.824;5.644;2023-05-21T08:57:05;3.30;;;3.00;;
36259;SDS011;22296;50.824;5.644;2023-05-21T08:59:33;3.40;;;3.10;;
36259;SDS011;22296;50.824;5.644;2023-05-21T09:02:05;3.20;;;2.90;;
36259;SDS011;22296;50.824;5.644;2023-05-21T09:04:35;3.30;;;2.95;;
36259;SDS011;22296;50.824;5.644;2023-05-21T09:07:05;3.13;;;2.83;;
36259;SDS011;22296;50.824;5.644;2023-05-21T09:09:54;3.50;;;3.03;;
36259;SDS011;22296;50.824;5.644;2023-05-21T09:12:25;2.90;;;2.70;;
36259;SDS011;22296;50.824;5.644;2023-05-21T09:14:56;3.22;;;2.92;;
36259;SDS011;22296;50.824;5.644;2023-05-21T09:17:28;3.20;;;2.90;;
36259;SDS011;22296;50.824;5.644;2023-05-21T09:20:04;3.28;;;2.97;;
36259;SDS011;22296;50.824;5.644;2023-05-21T09:22:36;3.20;;;2.90;;
36259;SDS011;22296;50.824;5.644;2023-05-21T09:25:06;3.10;;;2.80;;
36259;SDS011;22296;50.824;5.644;2023-05-21T09:27:34;3.42;;;3.10;;
36259;SDS011;22296;50.824;5.644;2023-05-21T09:30:08;3.40;;;3.10;;
36259;SDS011;22296;50.824;5.644;2023-05-21T09:32:36;2.90;;;2.60;;
36259;SDS011;22296;50.824;5.644;2023-05-21T09:35:11;3.40;;;3.10;;
36259;SDS011;22296;50.824;5.644;2023-05-21T09:37:42;3.10;;;2.80;;
36259;SDS011;22296;50.824;5.644;2023-05-21T09:40:14;3.47;;;3.17;;
36259;SDS011;22296;50.824;5.644;2023-05-21T09:45:17;2.97;;;2.78;;
36259;SDS011;22296;50.824;5.644;2023-05-21T09:47:46;3.30;;;3.00;;
36259;SDS011;22296;50.824;5.644;2023-05-21T09:50:24;3.20;;;2.90;;
36259;SDS011;22296;50.824;5.644;2023-05-21T09:52:54;3.25;;;2.95;;
36259;SDS011;22296;50.824;5.644;2023-05-21T09:55:21;2.78;;;2.58;;
36259;SDS011;22296;50.824;5.644;2023-05-21T09:57:50;3.17;;;2.92;;
36259;SDS011;22296;50.824;5.644;2023-05-21T10:02:47;3.10;;;2.80;;
36259;SDS011;22296;50.824;5.644;2023-05-21T10:05:15;3.60;;;3.30;;
36259;SDS011;22296;50.824;5.644;2023-05-21T10:07:49;3.10;;;2.80;;
36259;SDS011;22296;50.824;5.644;2023-05-21T10:10:19;3.42;;;3.13;;
36259;SDS011;22296;50.824;5.644;2023-05-21T10:12:52;3.13;;;2.83;;
36259;SDS011;22296;50.824;5.644;2023-05-21T10:15:22;3.25;;;2.95;;
36259;SDS011;22296;50.824;5.644;2023-05-21T10:17:50;3.20;;;2.90;;
36259;SDS011;22296;50.824;5.644;2023-05-21T10:20:18;3.22;;;2.92;;
36259;SDS011;22296;50.824;5.644;2023-05-21T10:22:46;3.63;;;3.33;;
36259;SDS011;22296;50.824;5.644;2023-05-21T10:25:13;3.13;;;2.83;;
36259;SDS011;22296;50.824;5.644;2023-05-21T10:27:41;3.10;;;2.80;;
36259;SDS011;22296;50.824;5.644;2023-05-21T10:30:08;3.53;;;2.80;;
36259;SDS011;22296;50.824;5.644;2023-05-21T10:32:35;3.08;;;2.78;;
36259;SDS011;22296;50.824;5.644;2023-05-21T10:35:07;3.40;;;3.10;;
36259;SDS011;22296;50.824;5.644;2023-05-21T10:37:35;3.92;;;3.25;;
36259;SDS011;22296;50.824;5.644;2023-05-21T10:40:02;3.42;;;3.13;;
36259;SDS011;22296;50.824;5.644;2023-05-21T10:58:42;3.25;;;2.85;;
36259;SDS011;22296;50.824;5.644;2023-05-21T11:01:30;3.60;;;3.30;;
36259;SDS011;22296;50.824;5.644;2023-05-21T11:04:01;3.67;;;3.20;;
36259;SDS011;22296;50.824;5.644;2023-05-21T11:06:29;3.75;;;3.28;;
36259;SDS011;22296;50.824;5.644;2023-05-21T11:08:59;3.40;;;3.10;;
36259;SDS011;22296;50.824;5.644;2023-05-21T11:24:47;3.83;;;3.42;;
36259;SDS011;22296;50.824;5.644;2023-05-21T11:27:35;4.00;;;3.60;;
36259;SDS011;22296;50.824;5.644;2023-05-21T11:30:04;3.92;;;3.50;;
36259;SDS011;22296;50.824;5.644;2023-05-21T11:32:33;3.90;;;3.50;;
36259;SDS011;22296;50.824;5.644;2023-05-21T11:35:06;3.80;;;3.50;;
36259;SDS011;22296;50.824;5.644;2023-05-21T11:37:33;3.90;;;3.55;;
36259;SDS011;22296;50.824;5.644;2023-05-21T11:43:03;4.35;;;3.78;;
36259;SDS011;22296;50.824;5.644;2023-05-21T11:45:31;4.18;;;3.60;;
36259;SDS011;22296;50.824;5.644;2023-05-21T11:47:58;3.80;;;3.47;;
36259;SDS011;22296;50.824;5.644;2023-05-21T11:50:25;3.78;;;3.35;;
36259;SDS011;22296;50.824;5.644;2023-05-21T11:52:56;4.20;;;3.80;;
36259;SDS011;22296;50.824;5.644;2023-05-21T11:55:25;3.88;;;3.38;;
36259;SDS011;22296;50.824;5.644;2023-05-21T11:57:52;4.00;;;3.60;;
36259;SDS011;22296;50.824;5.644;2023-05-21T12:00:20;3.97;;;3.57;;
36259;SDS011;22296;50.824;5.644;2023-05-21T12:02:51;4.32;;;3.92;;
36259;SDS011;22296;50.824;5.644;2023-05-21T12:05:20;4.43;;;3.97;;
36259;SDS011;22296;50.824;5.644;2023-05-21T12:07:47;3.88;;;3.58;;
36259;SDS011;22296;50.824;5.644;2023-05-21T12:10:20;4.25;;;3.85;;
36259;SDS011;22296;50.824;5.644;2023-05-21T12:12:48;4.50;;;4.10;;
36259;SDS011;22296;50.824;5.644;2023-05-21T12:15:22;4.00;;;3.60;;
36259;SDS011;22296;50.824;5.644;2023-05-21T12:17:50;4.20;;;3.70;;
36259;SDS011;22296;50.824;5.644;2023-05-21T12:20:18;4.18;;;3.78;;
36259;SDS011;22296;50.824;5.644;2023-05-21T12:22:47;4.55;;;3.97;;
36259;SDS011;22296;50.824;5.644;2023-05-21T12:25:18;4.50;;;4.10;;
36259;SDS011;22296;50.824;5.644;2023-05-21T12:27:47;4.40;;;4.00;;
36259;SDS011;22296;50.824;5.644;2023-05-21T12:30:16;4.20;;;3.70;;
36259;SDS011;22296;50.824;5.644;2023-05-21T12:32:43;4.85;;;4.35;;
36259;SDS011;22296;50.824;5.644;2023-05-21T12:35:19;4.60;;;3.80;;
36259;SDS011;22296;50.824;5.644;2023-05-21T12:37:47;4.18;;;3.78;;
36259;SDS011;22296;50.824;5.644;2023-05-21T12:40:16;4.15;;;3.75;;
36259;SDS011;22296;50.824;5.644;2023-05-21T12:42:43;4.43;;;4.03;;
36259;SDS011;22296;50.824;5.644;2023-05-21T12:45:10;4.28;;;3.80;;
36259;SDS011;22296;50.824;5.644;2023-05-21T12:47:37;4.18;;;3.78;;
36259;SDS011;22296;50.824;5.644;2023-05-21T12:50:07;4.43;;;4.03;;
36259;SDS011;22296;50.824;5.644;2023-05-21T12:52:38;4.32;;;3.92;;
36259;SDS011;22296;50.824;5.644;2023-05-21T12:55:06;4.27;;;3.87;;
36259;SDS011;22296;50.824;5.644;2023-05-21T12:57:35;3.97;;;3.67;;
36259;SDS011;22296;50.824;5.644;2023-05-21T13:00:06;4.43;;;4.03;;
36259;SDS011;22296;50.824;5.644;2023-05-21T13:02:38;4.93;;;4.43;;
36259;SDS011;22296;50.824;5.644;2023-05-21T13:05:08;4.10;;;3.80;;
36259;SDS011;22296;50.824;5.644;2023-05-21T13:07:37;4.85;;;4.35;;
36259;SDS011;22296;50.824;5.644;2023-05-21T13:10:05;4.57;;;4.17;;
36259;SDS011;22296;50.824;5.644;2023-05-21T13:12:34;5.63;;;4.40;;
36259;SDS011;22296;50.824;5.644;2023-05-21T13:15:01;4.65;;;4.25;;
36259;SDS011;22296;50.824;5.644;2023-05-21T13:17:30;5.03;;;4.53;;
36259;SDS011;22296;50.824;5.644;2023-05-21T13:20:11;4.53;;;4.13;;
36259;SDS011;22296;50.824;5.644;2023-05-21T13:22:44;5.40;;;4.20;;
36259;SDS011;22296;50.824;5.644;2023-05-21T13:25:22;4.50;;;4.10;;
36259;SDS011;22296;50.824;5.644;2023-05-21T13:27:51;4.43;;;3.97;;
36259;SDS011;22296;50.824;5.644;2023-05-21T13:30:19;4.70;;;4.28;;
36259;SDS011;22296;50.824;5.644;2023-05-21T13:32:47;4.87;;;4.33;;
36259;SDS011;22296;50.824;5.644;2023-05-21T13:35:14;4.35;;;3.95;;
36259;SDS011;22296;50.824;5.644;2023-05-21T13:37:42;4.50;;;4.10;;
36259;SDS011;22296;50.824;5.644;2023-05-21T13:40:10;5.18;;;4.25;;
36259;SDS011;22296;50.824;5.644;2023-05-21T13:42:39;4.53;;;4.07;;
36259;SDS011;22296;50.824;5.644;2023-05-21T13:45:07;4.95;;;4.47;;
36259;SDS011;22296;50.824;5.644;2023-05-21T13:50:06;4.65;;;4.25;;
36259;SDS011;22296;50.824;5.644;2023-05-21T13:52:34;4.68;;;4.10;;
36259;SDS011;22296;50.824;5.644;2023-05-21T13:55:01;4.40;;;4.00;;
36259;SDS011;22296;50.824;5.644;2023-05-21T13:57:28;5.28;;;4.78;;
36259;SDS011;22296;50.824;5.644;2023-05-21T13:59:56;4.80;;;4.30;;
36259;SDS011;22296;50.824;5.644;2023-05-21T14:02:24;4.50;;;4.10;;
36259;SDS011;22296;50.824;5.644;2023-05-21T14:04:52;4.78;;;4.32;;
36259;SDS011;22296;50.824;5.644;2023-05-21T14:07:19;6.10;;;4.78;;
36259;SDS011;22296;50.824;5.644;2023-05-21T14:09:47;4.70;;;4.28;;
36259;SDS011;22296;50.824;5.644;2023-05-21T14:12:14;5.05;;;4.55;;
36259;SDS011;22296;50.824;5.644;2023-05-21T14:14:42;5.30;;;4.70;;
36259;SDS011;22296;50.824;5.644;2023-05-21T14:17:09;5.15;;;4.63;;
36259;SDS011;22296;50.824;5.644;2023-05-21T14:19:36;4.75;;;4.25;;
36259;SDS011;22296;50.824;5.644;2023-05-21T14:22:02;4.68;;;4.28;;
36259;SDS011;22296;50.824;5.644;2023-05-21T14:24:30;4.90;;;4.50;;
36259;SDS011;22296;50.824;5.644;2023-05-21T14:26:56;6.03;;;4.97;;
36259;SDS011;22296;50.824;5.644;2023-05-21T14:29:23;5.10;;;4.60;;
36259;SDS011;22296;50.824;5.644;2023-05-21T14:31:50;4.85;;;4.40;;
36259;SDS011;22296;50.824;5.644;2023-05-21T14:34:17;5.30;;;4.80;;
36259;SDS011;22296;50.824;5.644;2023-05-21T14:36:44;4.95;;;4.45;;
36259;SDS011;22296;50.824;5.644;2023-05-21T14:39:11;5.40;;;4.97;;
36259;SDS011;22296;50.824;5.644;2023-05-21T14:41:38;5.72;;;5.22;;
36259;SDS011;22296;50.824;5.644;2023-05-21T14:44:05;4.68;;;4.28;;
36259;SDS011;22296;50.824;5.644;2023-05-21T14:46:32;4.78;;;4.35;;
36259;SDS011;22296;50.824;5.644;2023-05-21T14:48:59;4.68;;;4.18;;
36259;SDS011;22296;50.824;5.644;2023-05-21T14:51:26;4.65;;;4.25;;
36259;SDS011;22296;50.824;5.644;2023-05-21T14:53:53;5.38;;;4.80;;
36259;SDS011;22296;50.824;5.644;2023-05-21T14:56:21;5.30;;;4.80;;
36259;SDS011;22296;50.824;5.644;2023-05-21T14:58:48;5.00;;;4.60;;
36259;SDS011;22296;50.824;5.644;2023-05-21T15:01:15;5.45;;;4.95;;
36259;SDS011;22296;50.824;5.644;2023-05-21T15:03:42;4.80;;;4.30;;
36259;SDS011;22296;50.824;5.644;2023-05-21T15:06:09;5.60;;;4.95;;
36259;SDS011;22296;50.824;5.644;2023-05-21T15:08:37;5.72;;;5.22;;
36259;SDS011;22296;50.824;5.644;2023-05-21T15:11:04;5.20;;;4.70;;
36259;SDS011;22296;50.824;5.644;2023-05-21T15:13:32;5.60;;;5.00;;
36259;SDS011;22296;50.824;5.644;2023-05-21T15:15:59;5.47;;;4.97;;
36259;SDS011;22296;50.824;5.644;2023-05-21T15:18:26;4.93;;;4.43;;
36259;SDS011;22296;50.824;5.644;2023-05-21T15:20:54;4.88;;;4.47;;
36259;SDS011;22296;50.824;5.644;2023-05-21T15:23:21;5.18;;;4.68;;
36259;SDS011;22296;50.824;5.644;2023-05-21T15:25:48;5.38;;;4.88;;
36259;SDS011;22296;50.824;5.644;2023-05-21T15:28:15;5.82;;;5.32;;
36259;SDS011;22296;50.824;5.644;2023-05-21T15:30:42;5.30;;;4.85;;
36259;SDS011;22296;50.824;5.644;2023-05-21T15:33:09;5.22;;;4.82;;
36259;SDS011;22296;50.824;5.644;2023-05-21T15:35:36;5.57;;;5.07;;
36259;SDS011;22296;50.824;5.644;2023-05-21T15:38:04;5.60;;;5.10;;
36259;SDS011;22296;50.824;5.644;2023-05-21T15:40:31;5.82;;;5.10;;
36259;SDS011;22296;50.824;5.644;2023-05-21T15:42:58;6.47;;;5.55;;
36259;SDS011;22296;50.824;5.644;2023-05-21T15:45:24;13.93;;;5.88;;
36259;SDS011;22296;50.824;5.644;2023-05-21T15:47:51;6.95;;;5.60;;
36259;SDS011;22296;50.824;5.644;2023-05-21T15:50:18;6.05;;;5.30;;
36259;SDS011;22296;50.824;5.644;2023-05-21T15:52:45;5.97;;;5.38;;